Time;durP1;ratioP1;P1;durP2;ratioP2;P2;SDS_P1;SDS_P2;PMS_P1;PMS_P2;Temp;Humidity;BMP_temperature;BMP_pressure;BME280_temperature;BME280_humidity;BME280_pressure;Samples;Min_cycle;Max_cycle;Signal;HPM_P1;HPM_P2
2023/05/21 00:01:33;;;;;;;17.27;12.33;;;13.60;99.90;;;;;;5033274;28;20184;-66
2023/05/21 00:03:59;;;;;;;13.13;11.47;;;13.60;99.90;;;;;;5032993;28;20731;-66
2023/05/21 00:06:25;;;;;;;13.90;12.37;;;13.60;99.90;;;;;;5033560;28;20194;-66
2023/05/21 00:08:50;;;;;;;18.87;12.67;;;13.70;99.90;;;;;;5032214;28;20195;-66
2023/05/21 00:11:16;;;;;;;13.53;12.13;;;13.70;99.90;;;;;;5032866;28;20225;-66
2023/05/21 00:13:42;;;;;;;12.77;11.33;;;13.70;99.90;;;;;;5031915;28;20180;-66
2023/05/21 00:16:09;;;;;;;14.17;11.73;;;13.70;99.90;;;;;;5033183;28;20176;-66
2023/05/21 00:18:38;;;;;;;13.73;12.33;;;13.70;99.90;;;;;;5032997;28;20178;-66
2023/05/21 00:21:04;;;;;;;13.30;11.90;;;13.70;99.90;;;;;;5031433;28;20672;-66
2023/05/21 00:23:31;;;;;;;15.40;11.67;;;13.70;99.90;;;;;;5032741;28;20195;-66
2023/05/21 00:25:57;;;;;;;16.57;13.10;;;13.70;99.90;;;;;;5031637;28;20176;-66
2023/05/21 00:28:23;;;;;;;13.37;11.63;;;13.60;99.90;;;;;;5032309;28;20208;-66
2023/05/21 00:30:48;;;;;;;18.57;12.17;;;13.60;99.90;;;;;;5032700;28;20198;-66
2023/05/21 00:33:14;;;;;;;16.63;11.50;;;13.60;99.90;;;;;;5032585;28;20182;-66
2023/05/21 00:35:40;;;;;;;15.00;12.43;;;13.50;99.90;;;;;;5031337;28;20183;-66
2023/05/21 00:38:07;;;;;;;13.77;11.57;;;13.40;99.90;;;;;;5032328;28;20171;-66
2023/05/21 00:40:34;;;;;;;15.17;12.03;;;13.40;99.90;;;;;;5032302;28;20286;-66
2023/05/21 00:43:00;;;;;;;14.00;12.23;;;13.40;99.90;;;;;;5032455;28;20175;-66
2023/05/21 00:45:26;;;;;;;16.07;13.37;;;13.40;99.90;;;;;;5032489;28;20172;-66
2023/05/21 00:47:53;;;;;;;14.80;12.77;;;13.40;99.90;;;;;;5032374;28;20261;-66
2023/05/21 00:50:21;;;;;;;16.20;12.43;;;13.40;99.90;;;;;;5031735;28;20199;-66
2023/05/21 00:52:47;;;;;;;14.73;11.73;;;13.30;99.90;;;;;;5032493;28;20225;-65
2023/05/21 00:55:13;;;;;;;13.87;12.37;;;13.30;99.90;;;;;;5032240;28;20584;-66
2023/05/21 00:57:40;;;;;;;13.73;11.87;;;13.30;99.90;;;;;;5032339;28;20263;-66
2023/05/21 01:00:07;;;;;;;14.27;12.83;;;13.30;99.90;;;;;;5031881;28;20202;-66
2023/05/21 01:02:35;;;;;;;16.77;12.33;;;13.30;99.90;;;;;;5032213;28;20182;-66
2023/05/21 01:05:04;;;;;;;15.53;13.33;;;13.20;99.90;;;;;;5032153;28;20191;-66
2023/05/21 01:07:33;;;;;;;14.23;12.63;;;13.20;99.90;;;;;;5031207;28;20265;-66
2023/05/21 01:10:03;;;;;;;15.27;12.60;;;13.20;99.90;;;;;;5031682;28;20749;-66
2023/05/21 01:12:30;;;;;;;18.90;12.93;;;13.10;99.90;;;;;;5031963;28;20167;-66
2023/05/21 01:14:58;;;;;;;13.83;12.37;;;13.10;99.90;;;;;;5031942;28;20180;-66
2023/05/21 01:17:26;;;;;;;13.47;12.17;;;13.20;99.90;;;;;;5031942;28;20532;-66
2023/05/21 01:19:53;;;;;;;13.23;11.77;;;13.10;99.90;;;;;;5031429;28;20580;-66
2023/05/21 01:22:20;;;;;;;15.33;12.93;;;13.10;99.90;;;;;;5030479;28;20187;-66
2023/05/21 01:24:48;;;;;;;15.53;13.77;;;13.10;99.90;;;;;;5031541;28;20175;-66
2023/05/21 01:27:14;;;;;;;14.30;12.43;;;13.10;99.90;;;;;;5031825;28;20238;-66
2023/05/21 01:29:40;;;;;;;13.07;11.77;;;13.10;99.90;;;;;;5031081;28;20215;-66
2023/05/21 01:32:08;;;;;;;13.80;12.40;;;13.10;99.90;;;;;;5031380;28;20171;-66
2023/05/21 01:34:58;;;;;;;12.93;11.50;;;13.20;99.90;;;;;;5031318;28;20556;-66
2023/05/21 01:37:48;;;;;;;12.97;11.67;;;13.20;99.90;;;;;;5024398;28;20683;-66
2023/05/21 01:40:37;;;;;;;13.10;11.73;;;13.20;99.90;;;;;;5011376;28;20302;-66
2023/05/21 01:43:05;;;;;;;13.23;11.87;;;13.20;99.90;;;;;;5027995;28;20179;-66
2023/05/21 01:45:32;;;;;;;16.30;12.07;;;13.20;99.90;;;;;;5031380;28;20176;-66
2023/05/21 01:47:58;;;;;;;19.13;11.30;;;13.20;99.90;;;;;;5031170;28;20211;-66
2023/05/21 01:50:25;;;;;;;14.10;12.37;;;13.20;99.90;;;;;;5030470;28;20253;-66
2023/05/21 01:52:53;;;;;;;12.87;11.67;;;13.30;99.90;;;;;;5031499;28;20574;-66
2023/05/21 01:55:23;;;;;;;12.93;11.63;;;13.30;99.90;;;;;;5029784;28;20186;-66
2023/05/21 01:57:53;;;;;;;12.37;11.23;;;13.30;99.90;;;;;;5031612;28;20251;-66
2023/05/21 02:00:23;;;;;;;12.37;11.17;;;13.30;99.90;;;;;;5030481;28;20203;-66
2023/05/21 02:02:49;;;;;;;13.40;11.47;;;13.30;99.90;;;;;;5030260;28;20225;-66
2023/05/21 02:05:15;;;;;;;12.43;11.13;;;13.30;99.90;;;;;;5031039;28;20187;-66
2023/05/21 02:07:42;;;;;;;12.50;11.20;;;13.30;99.90;;;;;;5030511;28;20209;-66
2023/05/21 02:10:08;;;;;;;13.43;11.30;;;13.30;99.90;;;;;;5029081;28;20704;-66
2023/05/21 02:12:34;;;;;;;14.40;11.00;;;13.30;99.90;;;;;;5031669;28;20238;-66
2023/05/21 02:15:01;;;;;;;12.90;11.53;;;13.30;99.90;;;;;;5031077;28;20171;-67
2023/05/21 02:17:29;;;;;;;13.17;11.80;;;13.20;99.90;;;;;;5031133;28;20237;-66
2023/05/21 02:19:55;;;;;;;13.23;11.83;;;13.20;99.90;;;;;;5030577;28;20195;-66
2023/05/21 02:22:21;;;;;;;12.73;11.43;;;13.30;99.90;;;;;;5030985;28;20653;-66
2023/05/21 02:24:47;;;;;;;13.07;11.63;;;13.30;99.90;;;;;;5030984;28;20198;-66
2023/05/21 02:27:16;;;;;;;13.17;11.97;;;13.30;99.90;;;;;;5031009;28;20175;-66
2023/05/21 02:29:42;;;;;;;12.67;11.50;;;13.20;99.90;;;;;;5030593;28;20211;-66
2023/05/21 02:32:07;;;;;;;13.27;12.07;;;13.20;99.90;;;;;;5031193;28;20175;-66
2023/05/21 02:34:35;;;;;;;13.50;12.13;;;13.20;99.90;;;;;;5030816;28;20202;-66
2023/05/21 02:37:00;;;;;;;13.67;12.27;;;13.10;99.90;;;;;;5033109;28;20205;-66
2023/05/21 02:39:26;;;;;;;13.77;12.10;;;13.10;99.90;;;;;;5034313;28;20294;-66
2023/05/21 02:41:52;;;;;;;14.87;12.67;;;13.10;99.90;;;;;;5034949;28;20167;-66
2023/05/21 02:44:22;;;;;;;13.73;12.43;;;13.10;99.90;;;;;;5035912;28;20186;-71
2023/05/21 02:46:48;;;;;;;14.37;12.77;;;13.00;99.90;;;;;;5034935;28;20537;-69
2023/05/21 02:49:14;;;;;;;13.53;12.17;;;13.00;99.90;;;;;;5015981;28;20204;-73
2023/05/21 02:51:39;;;;;;;14.57;12.70;;;13.10;99.90;;;;;;5034349;28;20233;-74
2023/05/21 02:54:05;;;;;;;14.47;12.97;;;13.10;99.90;;;;;;5035785;28;20167;-71
2023/05/21 02:56:31;;;;;;;17.17;14.10;;;13.00;99.90;;;;;;5035815;28;20191;-70
2023/05/21 02:58:56;;;;;;;13.50;12.20;;;13.00;99.90;;;;;;5035968;28;20285;-68
2023/05/21 03:01:22;;;;;;;14.47;12.60;;;13.00;99.90;;;;;;5035109;28;20175;-68
2023/05/21 03:03:48;;;;;;;14.47;12.93;;;13.00;99.90;;;;;;5035613;28;20176;-70
2023/05/21 03:06:15;;;;;;;16.70;12.97;;;13.00;99.90;;;;;;5035501;28;20171;-71
2023/05/21 03:08:40;;;;;;;15.50;13.40;;;13.00;99.90;;;;;;5035480;28;20218;-71
2023/05/21 03:11:06;;;;;;;16.53;14.90;;;13.00;99.90;;;;;;5035373;28;20501;-72
2023/05/21 03:13:31;;;;;;;17.50;14.00;;;13.00;99.90;;;;;;5034656;28;20186;-71
2023/05/21 03:15:57;;;;;;;17.27;14.30;;;13.00;99.90;;;;;;5035620;28;20175;-72
2023/05/21 03:18:23;;;;;;;19.23;15.00;;;13.00;99.90;;;;;;5035221;28;20541;-71
2023/05/21 03:20:48;;;;;;;16.17;13.30;;;13.00;99.90;;;;;;5033808;28;20203;-71
2023/05/21 03:23:14;;;;;;;16.00;14.20;;;13.00;99.90;;;;;;5035147;28;20172;-73
2023/05/21 03:25:40;;;;;;;17.90;13.93;;;13.00;99.90;;;;;;5033867;28;20585;-70
2023/05/21 03:28:08;;;;;;;15.23;13.63;;;13.00;99.90;;;;;;5033830;28;20269;-69
2023/05/21 03:30:35;;;;;;;15.87;14.17;;;13.00;99.90;;;;;;5034850;28;20191;-69
2023/05/21 03:33:02;;;;;;;15.67;13.83;;;13.00;99.90;;;;;;5035227;28;20171;-70
2023/05/21 03:35:28;;;;;;;14.47;13.07;;;13.00;99.90;;;;;;5035485;28;20171;-68
2023/05/21 03:37:53;;;;;;;14.53;13.13;;;13.00;99.90;;;;;;5035332;28;20262;-69
2023/05/21 03:40:20;;;;;;;15.73;12.80;;;13.00;99.90;;;;;;5034768;28;20196;-68
2023/05/21 03:42:46;;;;;;;14.03;12.40;;;13.00;99.90;;;;;;5035251;28;20661;-69
2023/05/21 03:45:12;;;;;;;16.20;13.33;;;13.00;99.90;;;;;;5035457;28;20180;-69
2023/05/21 03:47:37;;;;;;;14.43;12.60;;;13.00;99.90;;;;;;5033193;28;20689;-70
2023/05/21 03:50:04;;;;;;;14.10;12.53;;;13.00;99.90;;;;;;5034674;28;20277;-69
2023/05/21 03:52:30;;;;;;;15.57;13.33;;;13.00;99.90;;;;;;5034753;28;20168;-71
2023/05/21 03:54:56;;;;;;;17.80;13.37;;;13.00;99.90;;;;;;5035299;28;20684;-72
2023/05/21 03:57:21;;;;;;;14.37;12.07;;;13.10;99.90;;;;;;5034775;28;20180;-70
2023/05/21 03:59:47;;;;;;;14.87;13.20;;;13.10;99.90;;;;;;5034315;28;20199;-70
2023/05/21 04:02:12;;;;;;;14.30;12.90;;;13.10;99.90;;;;;;5034848;28;20203;-71
2023/05/21 04:04:38;;;;;;;14.20;12.90;;;13.20;99.90;;;;;;5034750;28;20180;-69
2023/05/21 04:07:04;;;;;;;12.90;11.70;;;13.20;99.90;;;;;;5034651;28;20183;-70
2023/05/21 04:09:30;;;;;;;13.03;11.27;;;13.20;99.90;;;;;;5034324;28;20645;-70
2023/05/21 04:11:55;;;;;;;13.73;11.90;;;13.20;99.90;;;;;;5034562;28;20180;-69
2023/05/21 04:14:23;;;;;;;12.90;11.47;;;13.20;99.90;;;;;;5034609;28;20187;-68
2023/05/21 04:16:49;;;;;;;12.57;11.30;;;13.30;99.90;;;;;;5034434;28;20187;-69
2023/05/21 04:19:15;;;;;;;14.27;11.23;;;13.30;99.90;;;;;;5034358;28;20204;-70
2023/05/21 04:21:40;;;;;;;12.20;10.97;;;13.40;99.90;;;;;;5034825;28;20207;-72
2023/05/21 04:24:06;;;;;;;14.23;11.60;;;13.30;99.90;;;;;;5034948;28;20167;-71
2023/05/21 04:26:33;;;;;;;12.10;10.93;;;13.30;99.90;;;;;;5034632;28;20179;-72
2023/05/21 04:29:01;;;;;;;12.73;11.20;;;13.40;99.90;;;;;;5034533;28;20219;-72
2023/05/21 04:31:28;;;;;;;13.33;10.33;;;13.50;99.90;;;;;;5033894;28;20176;-72
2023/05/21 04:33:53;;;;;;;12.77;11.47;;;13.50;99.90;;;;;;5033425;28;20253;-69
2023/05/21 04:36:19;;;;;;;13.40;12.07;;;13.60;99.90;;;;;;5033852;28;20212;-69
2023/05/21 04:38:45;;;;;;;12.70;11.60;;;13.60;99.90;;;;;;5034156;28;20199;-72
2023/05/21 04:41:13;;;;;;;12.33;11.03;;;13.60;99.90;;;;;;5034013;28;20724;-71
2023/05/21 04:43:42;;;;;;;11.53;10.23;;;13.70;99.90;;;;;;5034255;28;20175;-70
2023/05/21 04:46:08;;;;;;;11.60;10.50;;;13.70;99.90;;;;;;5034363;28;20617;-71
2023/05/21 04:48:34;;;;;;;12.00;10.80;;;13.80;99.90;;;;;;5034042;28;20219;-70
2023/05/21 04:51:00;;;;;;;11.67;10.50;;;13.80;99.90;;;;;;5033248;28;20288;-72
2023/05/21 04:53:25;;;;;;;12.43;11.23;;;13.90;99.90;;;;;;5034349;28;20554;-73
2023/05/21 04:55:51;;;;;;;12.50;11.20;;;13.90;99.90;;;;;;5034172;28;20179;-69
2023/05/21 04:58:17;;;;;;;11.70;10.47;;;13.90;99.90;;;;;;5033540;28;20518;-71
2023/05/21 05:00:45;;;;;;;12.80;11.60;;;13.90;99.90;;;;;;5032956;28;20230;-71
2023/05/21 05:03:11;;;;;;;13.30;11.40;;;13.90;99.90;;;;;;5033717;28;20176;-72
2023/05/21 05:05:37;;;;;;;12.40;11.10;;;14.00;99.90;;;;;;5033793;28;20176;-71
2023/05/21 05:08:03;;;;;;;12.93;11.10;;;14.00;99.90;;;;;;5033351;28;20231;-69
2023/05/21 05:10:29;;;;;;;11.93;10.63;;;14.00;99.90;;;;;;5033107;28;20212;-72
2023/05/21 05:12:54;;;;;;;12.00;10.63;;;14.10;99.90;;;;;;5033673;28;20180;-71
2023/05/21 05:15:20;;;;;;;12.43;11.23;;;14.10;99.90;;;;;;5033901;28;20226;-71
2023/05/21 05:17:49;;;;;;;11.30;10.30;;;14.10;99.90;;;;;;5033439;28;20171;-65
2023/05/21 05:20:14;;;;;;;11.30;10.20;;;14.20;99.90;;;;;;5031365;28;20230;-65
2023/05/21 05:22:40;;;;;;;11.80;10.50;;;14.20;99.90;;;;;;5031766;28;20195;-66
2023/05/21 05:25:06;;;;;;;11.73;10.57;;;14.30;99.90;;;;;;5031639;28;20198;-66
2023/05/21 05:27:32;;;;;;;12.70;11.27;;;14.50;99.90;;;;;;5031683;28;20203;-65
2023/05/21 05:29:58;;;;;;;12.10;11.00;;;14.60;99.90;;;;;;5031302;28;20199;-65
2023/05/21 05:32:23;;;;;;;11.93;10.80;;;14.60;99.90;;;;;;5031567;28;20275;-65
2023/05/21 05:34:49;;;;;;;13.63;12.53;;;14.70;99.90;;;;;;5031621;28;20211;-66
2023/05/21 05:37:15;;;;;;;13.93;12.70;;;14.70;99.90;;;;;;5031285;28;20179;-66
2023/05/21 05:39:40;;;;;;;11.70;10.70;;;14.80;99.90;;;;;;5031363;28;20279;-66
2023/05/21 05:42:06;;;;;;;12.83;11.73;;;14.90;99.90;;;;;;5031398;28;20176;-66
2023/05/21 05:44:31;;;;;;;12.20;10.40;;;14.90;99.90;;;;;;5031319;28;20176;-66
2023/05/21 05:46:57;;;;;;;11.53;10.43;;;14.90;99.90;;;;;;5031366;28;20180;-66
2023/05/21 05:49:22;;;;;;;12.73;11.47;;;14.90;99.90;;;;;;5030990;28;20210;-66
2023/05/21 05:51:48;;;;;;;12.20;10.90;;;14.90;99.90;;;;;;5031278;28;20183;-66
2023/05/21 05:54:13;;;;;;;13.37;10.10;;;15.00;99.90;;;;;;5031129;28;20684;-66
2023/05/21 05:56:39;;;;;;;11.77;10.57;;;15.10;99.90;;;;;;5029987;28;20213;-66
2023/05/21 05:59:05;;;;;;;11.23;10.13;;;15.10;99.90;;;;;;5030962;28;20682;-66
2023/05/21 06:01:30;;;;;;;11.77;10.50;;;15.20;99.90;;;;;;5031094;28;20310;-66
2023/05/21 06:03:56;;;;;;;10.20;9.10;;;15.20;99.90;;;;;;5029900;28;20676;-66
2023/05/21 06:06:22;;;;;;;10.30;9.13;;;15.30;99.90;;;;;;5031296;28;20176;-66
2023/05/21 06:08:47;;;;;;;10.53;9.57;;;15.40;99.90;;;;;;5031017;28;20215;-66
2023/05/21 06:11:15;;;;;;;11.57;10.43;;;15.50;99.90;;;;;;5030810;28;20257;-66
2023/05/21 06:13:41;;;;;;;11.67;10.67;;;15.70;99.90;;;;;;5031958;28;20179;-66
2023/05/21 06:16:08;;;;;;;12.63;11.53;;;15.80;99.90;;;;;;5035255;28;20667;-66
2023/05/21 06:18:34;;;;;;;10.63;9.67;;;16.10;99.90;;;;;;5035226;28;20203;-66
2023/05/21 06:21:00;;;;;;;10.10;9.20;;;16.30;99.90;;;;;;5034563;28;20226;-66
2023/05/21 06:23:26;;;;;;;13.63;9.13;;;16.50;99.90;;;;;;5033546;28;20215;-65
2023/05/21 06:25:51;;;;;;;10.97;9.67;;;16.60;99.90;;;;;;5035076;28;20176;-66
2023/05/21 06:28:17;;;;;;;10.47;9.20;;;16.80;99.90;;;;;;5034589;28;20750;-66
2023/05/21 06:30:42;;;;;;;8.97;8.07;;;16.90;99.90;;;;;;5034603;28;20192;-66
2023/05/21 06:33:08;;;;;;;10.20;8.40;;;17.00;99.90;;;;;;5035086;28;20175;-66
2023/05/21 06:35:35;;;;;;;9.40;8.57;;;17.10;99.90;;;;;;5034475;28;20171;-66
2023/05/21 06:38:01;;;;;;;10.37;8.97;;;17.30;99.90;;;;;;5035003;28;20175;-66
2023/05/21 06:40:27;;;;;;;11.60;9.47;;;17.40;99.90;;;;;;5033820;28;20867;-66
2023/05/21 06:42:54;;;;;;;9.63;8.80;;;17.60;99.90;;;;;;5034896;28;20203;-66
2023/05/21 06:45:20;;;;;;;8.97;8.17;;;17.80;99.90;;;;;;5034225;28;20186;-65
2023/05/21 06:47:46;;;;;;;10.93;9.83;;;18.00;99.90;;;;;;5034610;28;20215;-66
2023/05/21 06:50:11;;;;;;;11.57;10.63;;;18.00;99.90;;;;;;5032935;28;20191;-66
2023/05/21 06:52:37;;;;;;;9.23;8.43;;;18.30;99.90;;;;;;5033711;28;20487;-65
2023/05/21 06:55:03;;;;;;;8.97;8.10;;;18.20;99.90;;;;;;5034679;28;20167;-66
2023/05/21 06:57:28;;;;;;;9.83;8.93;;;18.10;99.90;;;;;;5034078;28;20545;-66
2023/05/21 06:59:54;;;;;;;12.37;11.27;;;18.00;99.90;;;;;;5034254;28;20281;-66
2023/05/21 07:02:19;;;;;;;10.90;9.90;;;17.90;99.90;;;;;;5034076;28;20175;-66
2023/05/21 07:04:45;;;;;;;10.17;9.17;;;17.90;99.90;;;;;;5035303;28;20652;-66
2023/05/21 07:07:11;;;;;;;8.83;8.03;;;18.10;99.90;;;;;;5036970;28;20183;-66
2023/05/21 07:09:36;;;;;;;10.73;8.47;;;18.50;99.90;;;;;;5033886;28;20568;-66
2023/05/21 07:12:02;;;;;;;8.98;8.10;;;18.90;99.90;;;;;;5034400;28;20637;-66
2023/05/21 07:14:28;;;;;;;9.18;8.27;;;19.00;99.90;;;;;;5034228;28;20178;-66
2023/05/21 07:16:53;;;;;;;9.32;8.43;;;19.50;99.90;;;;;;5033925;28;20573;-66
2023/05/21 07:19:19;;;;;;;9.65;8.75;;;20.00;99.90;;;;;;5033758;28;20209;-66
2023/05/21 07:21:45;;;;;;;10.40;8.95;;;20.30;99.90;;;;;;5033384;28;20171;-66
2023/05/21 07:24:10;;;;;;;9.57;8.70;;;20.50;99.90;;;;;;5034117;28;20194;-67
2023/05/21 07:26:36;;;;;;;9.77;8.88;;;20.50;99.90;;;;;;5033653;28;20187;-66
2023/05/21 07:29:02;;;;;;;9.02;8.23;;;20.40;99.90;;;;;;5033898;28;20614;-66
2023/05/21 07:31:27;;;;;;;9.13;8.32;;;20.60;99.90;;;;;;5033368;28;20190;-66
2023/05/21 07:33:53;;;;;;;8.80;8.00;;;20.70;99.90;;;;;;5033944;28;20637;-66
2023/05/21 07:36:18;;;;;;;8.95;8.15;;;21.00;99.90;;;;;;5033599;28;20203;-66
2023/05/21 07:38:44;;;;;;;9.18;8.13;;;21.10;99.90;;;;;;5033982;28;20576;-66
2023/05/21 07:41:09;;;;;;;9.35;8.38;;;21.40;99.90;;;;;;5033215;28;20259;-66
2023/05/21 07:43:35;;;;;;;8.90;8.00;;;21.80;99.90;;;;;;5033799;28;20602;-66
2023/05/21 07:46:01;;;;;;;8.73;7.93;;;22.10;99.90;;;;;;5033541;28;20183;-66
2023/05/21 07:48:27;;;;;;;8.35;7.55;;;22.00;99.90;;;;;;5033343;28;20249;-66
2023/05/21 07:50:52;;;;;;;9.50;8.48;;;22.00;99.90;;;;;;5032568;28;20199;-66
2023/05/21 07:53:18;;;;;;;9.85;8.68;;;21.50;99.90;;;;;;5033788;28;20222;-66
2023/05/21 07:55:46;;;;;;;9.18;8.38;;;21.30;99.90;;;;;;5033327;28;20175;-66
2023/05/21 07:58:17;;;;;;;9.25;8.45;;;21.30;99.90;;;;;;5033478;28;20595;-66
2023/05/21 08:00:47;;;;;;;10.85;9.80;;;21.50;99.90;;;;;;5032894;28;20207;-66
2023/05/21 08:03:17;;;;;;;11.07;8.52;;;21.50;99.90;;;;;;5033378;28;20671;-66
2023/05/21 08:05:47;;;;;;;10.18;8.43;;;21.40;99.90;;;;;;5033172;28;20276;-66
2023/05/21 08:08:16;;;;;;;9.57;8.68;;;21.50;99.90;;;;;;5033333;28;20218;-66
2023/05/21 08:10:42;;;;;;;9.13;8.23;;;21.60;99.90;;;;;;5031928;28;20221;-66
2023/05/21 08:13:11;;;;;;;8.30;7.50;;;22.10;99.90;;;;;;5033360;28;20261;-66
2023/05/21 08:15:36;;;;;;;9.38;8.38;;;22.60;99.90;;;;;;5033029;28;20241;-66
2023/05/21 08:18:02;;;;;;;10.02;8.75;;;23.40;99.90;;;;;;5033245;28;20175;-66
2023/05/21 08:20:29;;;;;;;8.23;7.53;;;23.90;99.90;;;;;;5032214;28;20279;-66
2023/05/21 08:22:55;;;;;;;10.63;9.63;;;24.40;99.90;;;;;;5031902;28;20179;-66
2023/05/21 08:25:21;;;;;;;9.48;8.65;;;24.80;99.90;;;;;;5032749;28;20210;-66
2023/05/21 08:27:47;;;;;;;9.00;8.18;;;25.10;99.90;;;;;;5031603;28;20203;-66
2023/05/21 08:30:13;;;;;;;7.63;6.90;;;25.70;99.90;;;;;;5032098;28;20735;-67
2023/05/21 08:32:39;;;;;;;9.63;8.63;;;25.80;99.90;;;;;;5032522;28;20167;-66
2023/05/21 08:35:06;;;;;;;10.18;8.63;;;26.10;99.90;;;;;;5031618;28;20226;-66
2023/05/21 08:37:31;;;;;;;8.13;7.43;;;26.30;99.90;;;;;;5032421;28;20195;-66
2023/05/21 08:39:57;;;;;;;9.05;8.10;;;26.60;99.90;;;;;;5032053;28;20616;-66
2023/05/21 08:42:31;;;;;;;9.32;8.43;;;26.50;99.90;;;;;;5032312;28;20206;-66
2023/05/21 08:44:59;;;;;;;10.27;9.48;;;26.50;99.90;;;;;;5032518;28;20249;-66
2023/05/21 08:47:26;;;;;;;10.88;9.77;;;26.90;99.90;;;;;;5032333;28;20179;-66
2023/05/21 08:49:53;;;;;;;11.32;10.35;;;27.10;99.90;;;;;;5032109;28;20187;-66
2023/05/21 08:52:20;;;;;;;11.20;10.25;;;27.30;99.90;;;;;;5032474;28;20163;-66
2023/05/21 08:54:49;;;;;;;10.10;9.10;;;27.70;99.90;;;;;;5032208;28;20633;-66
2023/05/21 08:57:16;;;;;;;11.40;10.43;;;28.20;99.90;;;;;;5032092;28;20171;-66
2023/05/21 08:59:43;;;;;;;8.93;7.97;;;28.20;99.90;;;;;;5032106;28;20202;-66
2023/05/21 09:02:12;;;;;;;11.18;9.13;;;28.10;99.90;;;;;;5032147;28;20163;-66
2023/05/21 09:04:40;;;;;;;9.50;8.32;;;28.20;99.90;;;;;;5032216;28;20509;-66
2023/05/21 09:07:08;;;;;;;9.32;8.02;;;28.40;99.90;;;;;;5032362;28;20652;-66
2023/05/21 09:09:40;;;;;;;8.77;7.95;;;28.70;99.90;;;;;;5030331;28;20209;-66
2023/05/21 09:12:07;;;;;;;10.18;9.27;;;28.30;99.90;;;;;;5032328;28;20202;-66
2023/05/21 09:14:34;;;;;;;10.18;9.18;;;27.70;99.90;;;;;;5030458;28;20179;-66
2023/05/21 09:17:00;;;;;;;9.35;8.23;;;27.90;99.90;;;;;;5031819;28;20250;-66
2023/05/21 09:19:25;;;;;;;10.20;9.25;;;27.90;99.90;;;;;;5031936;28;20660;-66
2023/05/21 09:21:54;;;;;;;9.70;8.30;;;27.80;99.90;;;;;;5031695;28;20664;-66
2023/05/21 09:24:24;;;;;;;8.38;7.63;;;27.80;99.90;;;;;;5031138;28;20186;-66
2023/05/21 09:26:50;;;;;;;9.65;8.75;;;27.90;99.90;;;;;;5031526;28;20547;-66
2023/05/21 09:29:15;;;;;;;8.65;7.85;;;28.20;99.90;;;;;;5031416;28;20281;-66
2023/05/21 09:31:44;;;;;;;9.30;7.60;;;28.50;99.90;;;;;;5031554;28;20653;-66
2023/05/21 09:34:09;;;;;;;9.90;7.63;;;28.80;99.90;;;;;;5031808;28;20171;-66
2023/05/21 09:36:37;;;;;;;8.45;7.65;;;28.80;99.90;;;;;;5031260;28;20171;-66
2023/05/21 09:39:03;;;;;;;8.43;7.63;;;28.80;99.90;;;;;;5031732;28;20187;-66
2023/05/21 09:41:34;;;;;;;9.90;8.50;;;28.60;99.90;;;;;;5031234;28;20278;-66
2023/05/21 09:44:01;;;;;;;8.57;7.78;;;28.10;99.90;;;;;;5031729;28;20194;-66
2023/05/21 09:46:26;;;;;;;8.88;7.97;;;27.60;99.90;;;;;;5031040;28;20187;-66
2023/05/21 09:48:52;;;;;;;9.25;8.27;;;27.40;99.90;;;;;;5031303;28;20289;-67
2023/05/21 09:51:20;;;;;;;9.20;8.30;;;27.70;99.90;;;;;;5031092;28;20183;-66
2023/05/21 09:53:59;;;;;;;9.73;8.60;;;27.40;99.90;;;;;;5031559;28;20178;-67
2023/05/21 09:56:29;;;;;;;9.23;8.15;;;27.10;99.90;;;;;;5029691;28;20198;-66
2023/05/21 09:59:00;;;;;;;8.77;7.95;;;27.30;99.90;;;;;;5031341;28;20171;-67
2023/05/21 10:01:29;;;;;;;12.57;8.15;;;27.80;99.90;;;;;;5030632;28;20709;-66
2023/05/21 10:03:57;;;;;;;10.43;8.55;;;28.40;99.90;;;;;;5031327;28;20179;-67
2023/05/21 10:06:25;;;;;;;8.65;7.85;;;29.00;99.90;;;;;;5030724;28;20182;-66
2023/05/21 10:08:54;;;;;;;8.63;7.82;;;28.90;99.90;;;;;;5030926;28;20250;-67
2023/05/21 10:11:25;;;;;;;11.40;10.48;;;28.70;99.90;;;;;;5030463;28;20262;-66
2023/05/21 10:14:00;;;;;;;14.05;12.85;;;28.60;99.90;;;;;;5031244;28;20178;-66
2023/05/21 10:16:27;;;;;;;8.80;7.88;;;28.30;99.90;;;;;;5030852;28;20181;-66
2023/05/21 10:18:54;;;;;;;10.70;9.55;;;28.10;99.90;;;;;;5030966;28;20233;-66
2023/05/21 10:21:21;;;;;;;9.60;8.60;;;28.20;99.90;;;;;;5030502;28;20262;-66
2023/05/21 10:23:48;;;;;;;11.40;10.35;;;28.20;99.90;;;;;;5031044;28;20171;-66
2023/05/21 10:26:15;;;;;;;10.40;8.48;;;28.30;99.90;;;;;;5030701;28;20268;-66
2023/05/21 10:28:41;;;;;;;10.23;9.23;;;28.10;99.90;;;;;;5029562;28;20622;-66
2023/05/21 10:31:07;;;;;;;10.00;8.48;;;28.10;99.90;;;;;;5030736;28;20266;-67
2023/05/21 10:33:35;;;;;;;9.68;8.52;;;28.30;99.90;;;;;;5030938;28;20218;-66
2023/05/21 10:36:01;;;;;;;11.23;10.23;;;28.80;99.90;;;;;;5030844;28;20210;-66
2023/05/21 10:38:27;;;;;;;11.27;7.72;;;29.20;99.90;;;;;;5030759;28;20179;-66
2023/05/21 10:40:54;;;;;;;10.38;8.57;;;29.40;99.90;;;;;;5030264;28;20199;-66
2023/05/21 10:43:25;;;;;;;10.15;9.13;;;29.20;99.90;;;;;;5030554;28;20176;-66
2023/05/21 10:46:28;;;;;;;11.25;8.00;;;28.90;99.90;;;;;;5031065;28;20262;-66
2023/05/21 10:49:21;;;;;;;10.25;9.18;;;29.40;99.90;;;;;;5030757;28;20195;-66
2023/05/21 10:52:33;;;;;;;9.38;8.48;;;29.40;99.90;;;;;;5030854;28;20175;-66
2023/05/21 10:55:05;;;;;;;9.57;8.68;;;29.30;99.90;;;;;;5011160;28;20201;-66
2023/05/21 10:57:47;;;;;;;9.43;8.38;;;29.40;99.90;;;;;;5016978;28;20179;-66
2023/05/21 11:00:16;;;;;;;9.50;8.57;;;29.20;99.90;;;;;;5034121;28;20191;-66
2023/05/21 11:02:41;;;;;;;9.60;8.65;;;29.30;99.90;;;;;;5034162;28;20163;-66
2023/05/21 11:05:07;;;;;;;11.95;9.95;;;29.00;99.90;;;;;;5034634;28;20225;-66
2023/05/21 11:07:55;;;;;;;12.38;11.18;;;29.00;99.90;;;;;;5033904;28;20502;-66
2023/05/21 11:10:39;;;;;;;10.23;9.23;;;29.10;99.90;;;;;;5033994;28;20211;-66
2023/05/21 11:13:13;;;;;;;12.88;10.32;;;29.60;99.90;;;;;;5022213;28;20188;-66
2023/05/21 11:15:56;;;;;;;11.05;9.93;;;29.70;99.90;;;;;;5034158;28;20167;-66
2023/05/21 11:18:36;;;;;;;10.27;9.23;;;29.70;99.90;;;;;;5033796;28;20529;-67
2023/05/21 11:21:09;;;;;;;12.02;10.82;;;29.50;99.90;;;;;;5033930;28;20191;-66
2023/05/21 11:23:50;;;;;;;10.23;8.98;;;29.30;99.90;;;;;;5033791;28;20187;-66
2023/05/21 11:26:22;;;;;;;11.52;8.68;;;29.40;99.90;;;;;;5034061;28;20167;-66
2023/05/21 11:29:03;;;;;;;10.18;9.18;;;29.40;99.90;;;;;;5033640;28;20204;-66
2023/05/21 11:31:36;;;;;;;11.13;10.02;;;29.40;99.90;;;;;;5033634;28;20632;-66
2023/05/21 11:34:15;;;;;;;10.63;9.52;;;29.60;99.90;;;;;;5033811;28;20171;-66
2023/05/21 11:36:43;;;;;;;11.63;9.52;;;29.70;99.90;;;;;;5033772;28;20230;-66
2023/05/21 11:39:14;;;;;;;11.52;10.32;;;29.10;99.90;;;;;;5032102;28;20221;-66
2023/05/21 11:41:49;;;;;;;11.13;9.43;;;28.80;99.90;;;;;;5033520;28;20175;-66
2023/05/21 11:44:15;;;;;;;10.38;9.38;;;29.10;99.90;;;;;;5023228;28;20191;-66
2023/05/21 11:46:42;;;;;;;10.13;9.10;;;29.30;99.90;;;;;;5013592;28;20176;-66
2023/05/21 11:49:08;;;;;;;11.32;10.13;;;29.20;99.90;;;;;;5024445;28;20716;-66
2023/05/21 11:51:35;;;;;;;12.00;9.88;;;28.80;99.90;;;;;;5033288;28;20751;-66
2023/05/21 11:54:01;;;;;;;10.88;9.70;;;28.50;99.90;;;;;;5033268;28;20576;-66
2023/05/21 11:56:27;;;;;;;11.60;10.07;;;28.50;99.90;;;;;;5033346;28;20227;-66
2023/05/21 11:58:54;;;;;;;10.45;9.35;;;28.70;99.90;;;;;;5032979;28;20186;-66
2023/05/21 12:01:23;;;;;;;11.05;10.05;;;29.20;99.90;;;;;;5032937;28;20210;-67
2023/05/21 12:03:49;;;;;;;10.05;9.05;;;29.60;99.90;;;;;;5033176;28;20178;-66
2023/05/21 12:06:16;;;;;;;9.48;8.55;;;29.60;99.90;;;;;;5033062;28;20175;-66
2023/05/21 12:08:44;;;;;;;10.80;9.70;;;29.50;99.90;;;;;;5032584;28;20195;-66
2023/05/21 12:11:10;;;;;;;10.00;9.00;;;29.40;99.90;;;;;;5032889;28;20171;-66
2023/05/21 12:13:35;;;;;;;10.13;8.95;;;29.30;99.90;;;;;;5032995;28;20254;-67
2023/05/21 12:16:02;;;;;;;10.55;9.55;;;29.10;99.90;;;;;;5033194;28;20175;-67
2023/05/21 12:18:27;;;;;;;12.85;11.55;;;29.00;99.90;;;;;;5032909;28;20175;-67
2023/05/21 12:20:53;;;;;;;11.23;9.50;;;28.70;99.90;;;;;;5032648;28;20187;-66
2023/05/21 12:23:24;;;;;;;11.25;9.88;;;29.00;99.90;;;;;;5033010;28;20524;-67
2023/05/21 12:25:52;;;;;;;12.38;9.75;;;28.80;99.90;;;;;;5033109;28;20186;-66
2023/05/21 12:28:20;;;;;;;11.27;10.07;;;28.90;99.90;;;;;;5031635;28;20215;-67
2023/05/21 12:30:46;;;;;;;11.63;10.43;;;29.20;99.90;;;;;;5032357;28;20672;-67
2023/05/21 12:33:12;;;;;;;11.75;10.55;;;29.20;99.90;;;;;;5032859;28;20171;-67
2023/05/21 12:35:38;;;;;;;11.40;10.20;;;29.30;99.90;;;;;;5032737;28;20523;-66